Ballonweer?

Available data for EHGG from the past 2 hours
GRONINGEN/EELDE
Metar
EHGG 220025Z AUTO 24006KT 2300 BR BKN005 OVC007 12/11 Q1025 REDZ

00:25 UTC

Wind: 240° 6kt

Visibility: 2300 m

Sky: BKN 500 ft

Temp: 12 deg C / 53.6 deg F

Dewpoint: 11 deg C / 51.8 deg F

Pressure: 1025 hPa

TAF
TAF EHGG 212311Z 2200/2306 23006KT 7000 -RADZ FEW008 BKN012 TEMPO 2200/2202 3500 -DZRA SCT004 BKN006 BECMG 2201/2203 34012KT 9999 SCT025 BECMG 2215/2217 27005KT BECMG 2223/2301 24012KT BECMG 2304/2306 27017G27KT

Buienradar (tot 2 uur vooruit)

 

KNMI weerbulletin kleine luchtvaart

Klik hier om het weerbulletin te openen in een nieuw tabblad.